sensor_id;sensor_type;location;lat;lon;timestamp;temperature;humidity
82901;DHT22;72673;50.822;3.280;2024-02-26T00:00:30;8.40;99.90
82901;DHT22;72673;50.822;3.280;2024-02-26T00:02:55;8.50;99.90
82901;DHT22;72673;50.822;3.280;2024-02-26T00:05:21;8.50;99.90
82901;DHT22;72673;50.822;3.280;2024-02-26T00:07:47;8.40;99.90
82901;DHT22;72673;50.822;3.280;2024-02-26T00:10:13;8.40;99.90
82901;DHT22;72673;50.822;3.280;2024-02-26T00:12:39;8.40;99.90
82901;DHT22;72673;50.822;3.280;2024-02-26T00:15:06;8.30;99.90
82901;DHT22;72673;50.822;3.280;2024-02-26T00:17:32;8.50;99.90
82901;DHT22;72673;50.822;3.280;2024-02-26T00:19:57;8.40;99.90
82901;DHT22;72673;50.822;3.280;2024-02-26T00:22:23;8.30;99.90
82901;DHT22;72673;50.822;3.280;2024-02-26T00:24:48;8.30;99.90
82901;DHT22;72673;50.822;3.280;2024-02-26T00:27:14;8.20;99.90
82901;DHT22;72673;50.822;3.280;2024-02-26T00:29:39;8.10;99.90
82901;DHT22;72673;50.822;3.280;2024-02-26T00:32:05;8.10;99.90
82901;DHT22;72673;50.822;3.280;2024-02-26T00:34:31;8.00;99.90
82901;DHT22;72673;50.822;3.280;2024-02-26T00:36:57;8.10;99.90
82901;DHT22;72673;50.822;3.280;2024-02-26T00:39:22;8.10;99.90
82901;DHT22;72673;50.822;3.280;2024-02-26T00:41:48;8.00;99.90
82901;DHT22;72673;50.822;3.280;2024-02-26T00:44:13;7.90;99.90
82901;DHT22;72673;50.822;3.280;2024-02-26T00:46:39;7.90;99.90
82901;DHT22;72673;50.822;3.280;2024-02-26T00:49:05;8.00;99.90
82901;DHT22;72673;50.822;3.280;2024-02-26T00:51:31;7.90;99.90
82901;DHT22;72673;50.822;3.280;2024-02-26T00:53:56;7.90;99.90
82901;DHT22;72673;50.822;3.280;2024-02-26T00:56:22;8.00;99.90
82901;DHT22;72673;50.822;3.280;2024-02-26T00:58:48;8.10;99.90
82901;DHT22;72673;50.822;3.280;2024-02-26T01:01:13;8.10;99.90
82901;DHT22;72673;50.822;3.280;2024-02-26T01:03:39;8.00;99.90
82901;DHT22;72673;50.822;3.280;2024-02-26T01:06:05;8.00;99.90
82901;DHT22;72673;50.822;3.280;2024-02-26T01:08:30;8.00;99.90
82901;DHT22;72673;50.822;3.280;2024-02-26T01:10:57;7.90;99.90
82901;DHT22;72673;50.822;3.280;2024-02-26T01:13:22;7.90;99.90
82901;DHT22;72673;50.822;3.280;2024-02-26T01:15:48;8.00;99.90
82901;DHT22;72673;50.822;3.280;2024-02-26T01:18:14;8.00;99.90
82901;DHT22;72673;50.822;3.280;2024-02-26T01:20:39;7.90;99.90
82901;DHT22;72673;50.822;3.280;2024-02-26T01:23:05;7.90;99.90
82901;DHT22;72673;50.822;3.280;2024-02-26T01:25:31;8.00;99.90
82901;DHT22;72673;50.822;3.280;2024-02-26T01:27:56;7.90;99.90
82901;DHT22;72673;50.822;3.280;2024-02-26T01:30:22;7.80;99.90
82901;DHT22;72673;50.822;3.280;2024-02-26T01:32:48;7.80;99.90
82901;DHT22;72673;50.822;3.280;2024-02-26T01:35:13;7.90;99.90
82901;DHT22;72673;50.822;3.280;2024-02-26T01:37:39;7.90;99.90
82901;DHT22;72673;50.822;3.280;2024-02-26T01:40:06;7.80;99.90
82901;DHT22;72673;50.822;3.280;2024-02-26T01:42:32;7.80;99.90
82901;DHT22;72673;50.822;3.280;2024-02-26T01:44:59;7.90;99.90
82901;DHT22;72673;50.822;3.280;2024-02-26T01:47:25;7.90;99.90
82901;DHT22;72673;50.822;3.280;2024-02-26T01:49:52;7.90;99.90
82901;DHT22;72673;50.822;3.280;2024-02-26T01:52:18;7.90;99.90
82901;DHT22;72673;50.822;3.280;2024-02-26T01:54:45;7.90;99.90
82901;DHT22;72673;50.822;3.280;2024-02-26T01:57:12;7.90;99.90
82901;DHT22;72673;50.822;3.280;2024-02-26T01:59:39;7.90;99.90
82901;DHT22;72673;50.822;3.280;2024-02-26T02:02:08;7.90;99.90
82901;DHT22;72673;50.822;3.280;2024-02-26T02:04:35;7.90;99.90
82901;DHT22;72673;50.822;3.280;2024-02-26T02:07:01;7.90;99.90
82901;DHT22;72673;50.822;3.280;2024-02-26T02:09:28;7.90;99.90
82901;DHT22;72673;50.822;3.280;2024-02-26T02:11:54;7.90;99.90
82901;DHT22;72673;50.822;3.280;2024-02-26T02:14:19;7.90;99.90
82901;DHT22;72673;50.822;3.280;2024-02-26T02:16:46;7.80;99.90
82901;DHT22;72673;50.822;3.280;2024-02-26T02:19:12;7.90;99.90
82901;DHT22;72673;50.822;3.280;2024-02-26T02:21:38;8.00;99.90
82901;DHT22;72673;50.822;3.280;2024-02-26T02:24:04;7.90;99.90
82901;DHT22;72673;50.822;3.280;2024-02-26T02:26:29;7.90;99.90
82901;DHT22;72673;50.822;3.280;2024-02-26T02:28:55;7.80;99.90
82901;DHT22;72673;50.822;3.280;2024-02-26T02:31:21;7.80;99.90
82901;DHT22;72673;50.822;3.280;2024-02-26T02:33:46;7.90;99.90
82901;DHT22;72673;50.822;3.280;2024-02-26T02:36:12;7.70;99.90
82901;DHT22;72673;50.822;3.280;2024-02-26T02:38:38;7.80;99.90
82901;DHT22;72673;50.822;3.280;2024-02-26T02:41:04;7.80;99.90
82901;DHT22;72673;50.822;3.280;2024-02-26T02:43:30;7.80;99.90
82901;DHT22;72673;50.822;3.280;2024-02-26T02:45:56;7.50;99.90
82901;DHT22;72673;50.822;3.280;2024-02-26T02:48:21;7.50;99.90
82901;DHT22;72673;50.822;3.280;2024-02-26T02:50:47;7.50;99.90
82901;DHT22;72673;50.822;3.280;2024-02-26T02:53:12;7.60;99.90
82901;DHT22;72673;50.822;3.280;2024-02-26T02:55:38;7.60;99.90
82901;DHT22;72673;50.822;3.280;2024-02-26T02:58:04;7.60;99.90
82901;DHT22;72673;50.822;3.280;2024-02-26T03:00:29;7.60;99.90
82901;DHT22;72673;50.822;3.280;2024-02-26T03:02:55;7.50;99.90
82901;DHT22;72673;50.822;3.280;2024-02-26T03:05:20;7.40;99.90
82901;DHT22;72673;50.822;3.280;2024-02-26T03:07:46;7.40;99.90
82901;DHT22;72673;50.822;3.280;2024-02-26T03:10:11;7.40;99.90
82901;DHT22;72673;50.822;3.280;2024-02-26T03:12:37;7.40;99.90
82901;DHT22;72673;50.822;3.280;2024-02-26T03:15:03;7.30;99.90
82901;DHT22;72673;50.822;3.280;2024-02-26T03:17:29;7.40;99.90
82901;DHT22;72673;50.822;3.280;2024-02-26T03:19:55;7.50;99.90
82901;DHT22;72673;50.822;3.280;2024-02-26T03:22:21;7.40;99.90
82901;DHT22;72673;50.822;3.280;2024-02-26T03:24:47;7.30;99.90
82901;DHT22;72673;50.822;3.280;2024-02-26T03:27:12;7.30;99.90
82901;DHT22;72673;50.822;3.280;2024-02-26T03:29:38;7.30;99.90
82901;DHT22;72673;50.822;3.280;2024-02-26T03:32:05;7.30;99.90
82901;DHT22;72673;50.822;3.280;2024-02-26T03:34:31;7.30;99.90
82901;DHT22;72673;50.822;3.280;2024-02-26T03:36:59;7.30;99.90
82901;DHT22;72673;50.822;3.280;2024-02-26T03:39:25;7.20;99.90
82901;DHT22;72673;50.822;3.280;2024-02-26T03:41:51;7.10;99.90
82901;DHT22;72673;50.822;3.280;2024-02-26T03:44:17;7.10;99.90
82901;DHT22;72673;50.822;3.280;2024-02-26T03:46:43;7.10;99.90
82901;DHT22;72673;50.822;3.280;2024-02-26T03:49:08;7.20;99.90
82901;DHT22;72673;50.822;3.280;2024-02-26T03:51:34;7.20;99.90
82901;DHT22;72673;50.822;3.280;2024-02-26T03:54:00;7.30;99.90
82901;DHT22;72673;50.822;3.280;2024-02-26T03:56:26;7.30;99.90
82901;DHT22;72673;50.822;3.280;2024-02-26T03:58:52;7.30;99.90
82901;DHT22;72673;50.822;3.280;2024-02-26T04:01:18;7.30;99.90
82901;DHT22;72673;50.822;3.280;2024-02-26T04:03:43;7.20;99.90
82901;DHT22;72673;50.822;3.280;2024-02-26T04:06:09;7.10;99.90
82901;DHT22;72673;50.822;3.280;2024-02-26T04:08:43;7.00;99.90
82901;DHT22;72673;50.822;3.280;2024-02-26T04:11:08;7.00;99.90
82901;DHT22;72673;50.822;3.280;2024-02-26T04:13:35;6.90;99.90
82901;DHT22;72673;50.822;3.280;2024-02-26T04:16:00;7.00;99.90
82901;DHT22;72673;50.822;3.280;2024-02-26T04:18:29;7.00;99.90
82901;DHT22;72673;50.822;3.280;2024-02-26T04:20:54;7.10;99.90
82901;DHT22;72673;50.822;3.280;2024-02-26T04:23:20;7.00;99.90
82901;DHT22;72673;50.822;3.280;2024-02-26T04:25:46;7.00;99.90
82901;DHT22;72673;50.822;3.280;2024-02-26T04:28:12;6.90;99.90
82901;DHT22;72673;50.822;3.280;2024-02-26T04:30:38;6.90;99.90
82901;DHT22;72673;50.822;3.280;2024-02-26T04:33:03;7.00;99.90
82901;DHT22;72673;50.822;3.280;2024-02-26T04:35:29;6.90;99.90
82901;DHT22;72673;50.822;3.280;2024-02-26T04:37:55;7.00;99.90
82901;DHT22;72673;50.822;3.280;2024-02-26T04:40:21;7.00;99.90
82901;DHT22;72673;50.822;3.280;2024-02-26T04:42:46;7.00;99.90
82901;DHT22;72673;50.822;3.280;2024-02-26T04:45:12;7.00;99.90
82901;DHT22;72673;50.822;3.280;2024-02-26T04:47:37;7.00;99.90
82901;DHT22;72673;50.822;3.280;2024-02-26T04:50:03;7.00;99.90
82901;DHT22;72673;50.822;3.280;2024-02-26T04:52:29;6.90;99.90
82901;DHT22;72673;50.822;3.280;2024-02-26T04:54:55;6.90;99.90
82901;DHT22;72673;50.822;3.280;2024-02-26T04:57:21;6.80;99.90
82901;DHT22;72673;50.822;3.280;2024-02-26T04:59:47;6.80;99.90
82901;DHT22;72673;50.822;3.280;2024-02-26T05:02:13;6.90;99.90
82901;DHT22;72673;50.822;3.280;2024-02-26T05:04:39;6.90;99.90
82901;DHT22;72673;50.822;3.280;2024-02-26T05:07:04;6.70;99.90
82901;DHT22;72673;50.822;3.280;2024-02-26T05:09:31;6.80;99.90
82901;DHT22;72673;50.822;3.280;2024-02-26T05:11:57;6.90;99.90
82901;DHT22;72673;50.822;3.280;2024-02-26T05:14:22;6.90;99.90
82901;DHT22;72673;50.822;3.280;2024-02-26T05:16:48;6.90;99.90
82901;DHT22;72673;50.822;3.280;2024-02-26T05:19:13;7.00;99.90
82901;DHT22;72673;50.822;3.280;2024-02-26T05:21:39;7.00;99.90
82901;DHT22;72673;50.822;3.280;2024-02-26T05:24:06;7.10;99.90
82901;DHT22;72673;50.822;3.280;2024-02-26T05:26:31;7.20;99.90
82901;DHT22;72673;50.822;3.280;2024-02-26T05:28:57;7.00;99.90
82901;DHT22;72673;50.822;3.280;2024-02-26T05:31:25;7.00;99.90
82901;DHT22;72673;50.822;3.280;2024-02-26T05:33:51;7.20;99.90
82901;DHT22;72673;50.822;3.280;2024-02-26T05:36:21;7.20;99.90
82901;DHT22;72673;50.822;3.280;2024-02-26T05:38:48;7.10;99.90
82901;DHT22;72673;50.822;3.280;2024-02-26T05:41:17;7.10;99.90
82901;DHT22;72673;50.822;3.280;2024-02-26T05:43:49;7.20;99.90
82901;DHT22;72673;50.822;3.280;2024-02-26T05:46:16;7.20;99.90
82901;DHT22;72673;50.822;3.280;2024-02-26T05:48:43;7.30;99.90
82901;DHT22;72673;50.822;3.280;2024-02-26T05:51:09;7.20;99.90
82901;DHT22;72673;50.822;3.280;2024-02-26T05:53:35;7.30;99.90
82901;DHT22;72673;50.822;3.280;2024-02-26T05:56:00;7.40;99.90
82901;DHT22;72673;50.822;3.280;2024-02-26T05:58:26;7.50;99.90
82901;DHT22;72673;50.822;3.280;2024-02-26T06:00:51;7.40;99.90
82901;DHT22;72673;50.822;3.280;2024-02-26T06:03:17;7.40;99.90
82901;DHT22;72673;50.822;3.280;2024-02-26T06:05:42;7.30;99.90
82901;DHT22;72673;50.822;3.280;2024-02-26T06:08:08;7.30;99.90
82901;DHT22;72673;50.822;3.280;2024-02-26T06:10:34;7.20;99.90
82901;DHT22;72673;50.822;3.280;2024-02-26T06:13:00;7.20;99.90
82901;DHT22;72673;50.822;3.280;2024-02-26T06:15:25;7.30;99.90
82901;DHT22;72673;50.822;3.280;2024-02-26T06:17:51;7.20;99.90
82901;DHT22;72673;50.822;3.280;2024-02-26T06:20:16;7.20;99.90
82901;DHT22;72673;50.822;3.280;2024-02-26T06:22:42;7.10;99.90
82901;DHT22;72673;50.822;3.280;2024-02-26T06:25:08;7.20;99.90
82901;DHT22;72673;50.822;3.280;2024-02-26T06:27:34;7.10;99.90
82901;DHT22;72673;50.822;3.280;2024-02-26T06:30:00;7.10;99.90
82901;DHT22;72673;50.822;3.280;2024-02-26T06:32:26;7.20;99.90
82901;DHT22;72673;50.822;3.280;2024-02-26T06:34:54;7.20;99.90
82901;DHT22;72673;50.822;3.280;2024-02-26T06:37:19;7.10;99.90
82901;DHT22;72673;50.822;3.280;2024-02-26T06:39:45;7.10;99.90
82901;DHT22;72673;50.822;3.280;2024-02-26T06:42:11;7.10;99.90
82901;DHT22;72673;50.822;3.280;2024-02-26T06:44:36;7.10;99.90
82901;DHT22;72673;50.822;3.280;2024-02-26T06:47:02;7.00;99.90
82901;DHT22;72673;50.822;3.280;2024-02-26T06:49:28;6.90;99.90
82901;DHT22;72673;50.822;3.280;2024-02-26T06:51:54;7.00;99.90
82901;DHT22;72673;50.822;3.280;2024-02-26T06:54:19;6.90;99.90
82901;DHT22;72673;50.822;3.280;2024-02-26T06:56:45;6.80;99.90
82901;DHT22;72673;50.822;3.280;2024-02-26T06:59:11;6.90;99.90
82901;DHT22;72673;50.822;3.280;2024-02-26T07:01:37;6.90;99.90
82901;DHT22;72673;50.822;3.280;2024-02-26T07:04:02;6.90;99.90
82901;DHT22;72673;50.822;3.280;2024-02-26T07:06:28;6.90;99.90
82901;DHT22;72673;50.822;3.280;2024-02-26T07:08:53;6.90;99.90
82901;DHT22;72673;50.822;3.280;2024-02-26T07:11:19;6.90;99.90
82901;DHT22;72673;50.822;3.280;2024-02-26T07:13:46;6.90;99.90
82901;DHT22;72673;50.822;3.280;2024-02-26T07:16:11;6.80;99.90
82901;DHT22;72673;50.822;3.280;2024-02-26T07:18:38;6.80;99.90
82901;DHT22;72673;50.822;3.280;2024-02-26T07:21:04;6.70;99.90
82901;DHT22;72673;50.822;3.280;2024-02-26T07:23:30;6.70;99.90
82901;DHT22;72673;50.822;3.280;2024-02-26T07:25:56;6.70;99.90
82901;DHT22;72673;50.822;3.280;2024-02-26T07:28:21;6.70;99.90
82901;DHT22;72673;50.822;3.280;2024-02-26T07:30:47;6.70;99.90
82901;DHT22;72673;50.822;3.280;2024-02-26T07:33:13;6.70;99.90
82901;DHT22;72673;50.822;3.280;2024-02-26T07:35:38;6.70;99.90
82901;DHT22;72673;50.822;3.280;2024-02-26T07:38:04;6.90;99.90
82901;DHT22;72673;50.822;3.280;2024-02-26T07:40:30;6.80;99.90
82901;DHT22;72673;50.822;3.280;2024-02-26T07:42:56;6.80;99.90
82901;DHT22;72673;50.822;3.280;2024-02-26T07:45:22;6.80;99.90
82901;DHT22;72673;50.822;3.280;2024-02-26T07:47:48;6.80;99.90
82901;DHT22;72673;50.822;3.280;2024-02-26T07:50:13;6.90;99.90
82901;DHT22;72673;50.822;3.280;2024-02-26T07:52:39;6.80;99.90
82901;DHT22;72673;50.822;3.280;2024-02-26T07:55:06;6.80;99.90
82901;DHT22;72673;50.822;3.280;2024-02-26T07:57:33;6.70;99.90
82901;DHT22;72673;50.822;3.280;2024-02-26T08:00:02;6.70;99.90
82901;DHT22;72673;50.822;3.280;2024-02-26T08:02:28;6.80;99.90
82901;DHT22;72673;50.822;3.280;2024-02-26T08:04:53;6.80;99.90
82901;DHT22;72673;50.822;3.280;2024-02-26T08:07:19;6.70;99.90
82901;DHT22;72673;50.822;3.280;2024-02-26T08:09:46;6.80;99.90
82901;DHT22;72673;50.822;3.280;2024-02-26T08:12:12;6.80;99.90
82901;DHT22;72673;50.822;3.280;2024-02-26T08:14:38;6.80;99.90
82901;DHT22;72673;50.822;3.280;2024-02-26T08:17:03;6.80;99.90
82901;DHT22;72673;50.822;3.280;2024-02-26T08:19:29;6.80;99.90
82901;DHT22;72673;50.822;3.280;2024-02-26T08:21:54;6.90;99.90
82901;DHT22;72673;50.822;3.280;2024-02-26T08:24:20;6.80;99.90
82901;DHT22;72673;50.822;3.280;2024-02-26T08:26:45;6.80;99.90
82901;DHT22;72673;50.822;3.280;2024-02-26T08:29:11;6.80;99.90
82901;DHT22;72673;50.822;3.280;2024-02-26T08:31:37;6.70;99.90
82901;DHT22;72673;50.822;3.280;2024-02-26T08:34:03;6.70;99.90
82901;DHT22;72673;50.822;3.280;2024-02-26T08:36:29;6.70;99.90
82901;DHT22;72673;50.822;3.280;2024-02-26T08:38:55;6.70;99.90
82901;DHT22;72673;50.822;3.280;2024-02-26T08:41:21;6.80;99.90
82901;DHT22;72673;50.822;3.280;2024-02-26T08:43:46;6.70;99.90
82901;DHT22;72673;50.822;3.280;2024-02-26T08:46:15;6.70;99.90
82901;DHT22;72673;50.822;3.280;2024-02-26T08:48:40;6.70;99.90
82901;DHT22;72673;50.822;3.280;2024-02-26T08:51:07;6.70;99.90
82901;DHT22;72673;50.822;3.280;2024-02-26T08:53:33;6.70;99.90
82901;DHT22;72673;50.822;3.280;2024-02-26T08:55:58;6.70;99.90
82901;DHT22;72673;50.822;3.280;2024-02-26T08:58:24;6.70;99.90
82901;DHT22;72673;50.822;3.280;2024-02-26T09:00:49;6.60;99.90
82901;DHT22;72673;50.822;3.280;2024-02-26T09:03:16;6.60;99.90
82901;DHT22;72673;50.822;3.280;2024-02-26T09:05:41;6.60;99.90
82901;DHT22;72673;50.822;3.280;2024-02-26T09:08:07;6.60;99.90
82901;DHT22;72673;50.822;3.280;2024-02-26T09:10:33;6.60;99.90
82901;DHT22;72673;50.822;3.280;2024-02-26T09:12:58;6.60;99.90
82901;DHT22;72673;50.822;3.280;2024-02-26T09:15:24;6.70;99.90
82901;DHT22;72673;50.822;3.280;2024-02-26T09:17:49;6.70;99.90
82901;DHT22;72673;50.822;3.280;2024-02-26T09:20:16;6.60;99.90
82901;DHT22;72673;50.822;3.280;2024-02-26T09:22:48;6.60;99.90
82901;DHT22;72673;50.822;3.280;2024-02-26T09:25:14;6.60;99.90
82901;DHT22;72673;50.822;3.280;2024-02-26T09:27:41;6.50;99.90
82901;DHT22;72673;50.822;3.280;2024-02-26T09:30:12;6.50;99.90
82901;DHT22;72673;50.822;3.280;2024-02-26T09:32:38;6.50;99.90
82901;DHT22;72673;50.822;3.280;2024-02-26T09:35:05;6.60;99.90
82901;DHT22;72673;50.822;3.280;2024-02-26T09:37:31;6.50;99.90
82901;DHT22;72673;50.822;3.280;2024-02-26T09:39:56;6.50;99.90
82901;DHT22;72673;50.822;3.280;2024-02-26T09:42:25;6.50;99.90
82901;DHT22;72673;50.822;3.280;2024-02-26T09:44:54;6.50;99.90
82901;DHT22;72673;50.822;3.280;2024-02-26T09:47:28;6.50;99.90
82901;DHT22;72673;50.822;3.280;2024-02-26T09:49:56;6.60;99.90
82901;DHT22;72673;50.822;3.280;2024-02-26T09:52:24;6.60;99.90
82901;DHT22;72673;50.822;3.280;2024-02-26T09:54:51;6.60;99.90
82901;DHT22;72673;50.822;3.280;2024-02-26T09:57:16;6.50;99.90
82901;DHT22;72673;50.822;3.280;2024-02-26T09:59:43;6.50;99.90
82901;DHT22;72673;50.822;3.280;2024-02-26T10:02:12;6.50;99.90
82901;DHT22;72673;50.822;3.280;2024-02-26T10:04:39;6.50;99.90
82901;DHT22;72673;50.822;3.280;2024-02-26T10:07:10;6.50;99.90
82901;DHT22;72673;50.822;3.280;2024-02-26T10:09:36;6.50;99.90
82901;DHT22;72673;50.822;3.280;2024-02-26T10:12:03;6.60;99.90
82901;DHT22;72673;50.822;3.280;2024-02-26T10:14:30;6.60;99.90
82901;DHT22;72673;50.822;3.280;2024-02-26T10:16:56;6.60;99.90
82901;DHT22;72673;50.822;3.280;2024-02-26T10:19:29;6.60;99.90
82901;DHT22;72673;50.822;3.280;2024-02-26T10:21:59;6.50;99.90
82901;DHT22;72673;50.822;3.280;2024-02-26T10:24:26;6.50;99.90
82901;DHT22;72673;50.822;3.280;2024-02-26T10:26:54;6.50;99.90
82901;DHT22;72673;50.822;3.280;2024-02-26T10:29:20;6.50;99.90
82901;DHT22;72673;50.822;3.280;2024-02-26T10:31:46;6.50;99.90
82901;DHT22;72673;50.822;3.280;2024-02-26T10:34:12;6.50;99.90
82901;DHT22;72673;50.822;3.280;2024-02-26T10:36:38;6.60;99.90
82901;DHT22;72673;50.822;3.280;2024-02-26T10:39:06;6.60;99.90
82901;DHT22;72673;50.822;3.280;2024-02-26T10:41:35;6.50;99.90
82901;DHT22;72673;50.822;3.280;2024-02-26T10:44:01;6.40;99.90
82901;DHT22;72673;50.822;3.280;2024-02-26T10:46:27;6.40;99.90
82901;DHT22;72673;50.822;3.280;2024-02-26T10:48:53;6.40;99.90
82901;DHT22;72673;50.822;3.280;2024-02-26T10:51:26;6.50;99.90
82901;DHT22;72673;50.822;3.280;2024-02-26T10:53:55;6.50;99.90
82901;DHT22;72673;50.822;3.280;2024-02-26T10:56:26;6.50;99.90
82901;DHT22;72673;50.822;3.280;2024-02-26T10:58:55;6.50;99.90
82901;DHT22;72673;50.822;3.280;2024-02-26T11:01:22;6.40;99.90
82901;DHT22;72673;50.822;3.280;2024-02-26T11:03:53;6.50;99.90
82901;DHT22;72673;50.822;3.280;2024-02-26T11:06:19;6.50;99.90
82901;DHT22;72673;50.822;3.280;2024-02-26T11:08:53;6.50;99.90
82901;DHT22;72673;50.822;3.280;2024-02-26T11:11:20;6.50;99.90
82901;DHT22;72673;50.822;3.280;2024-02-26T11:13:47;6.50;99.90
82901;DHT22;72673;50.822;3.280;2024-02-26T11:16:20;6.50;99.90
82901;DHT22;72673;50.822;3.280;2024-02-26T11:18:48;6.50;99.90
82901;DHT22;72673;50.822;3.280;2024-02-26T11:21:17;6.50;99.90
82901;DHT22;72673;50.822;3.280;2024-02-26T11:23:45;6.60;99.90
82901;DHT22;72673;50.822;3.280;2024-02-26T11:26:12;6.50;99.90
82901;DHT22;72673;50.822;3.280;2024-02-26T11:28:39;6.50;99.90
82901;DHT22;72673;50.822;3.280;2024-02-26T11:31:05;6.50;99.90
82901;DHT22;72673;50.822;3.280;2024-02-26T11:33:33;6.50;99.90
82901;DHT22;72673;50.822;3.280;2024-02-26T11:36:02;6.40;99.90
82901;DHT22;72673;50.822;3.280;2024-02-26T11:38:28;6.50;99.90
82901;DHT22;72673;50.822;3.280;2024-02-26T11:40:54;6.50;99.90
82901;DHT22;72673;50.822;3.280;2024-02-26T11:46:42;6.60;99.90
82901;DHT22;72673;50.822;3.280;2024-02-26T11:51:53;6.60;99.90
82901;DHT22;72673;50.822;3.280;2024-02-26T11:57:39;6.60;99.90
82901;DHT22;72673;50.822;3.280;2024-02-26T12:05:17;6.50;99.90
82901;DHT22;72673;50.822;3.280;2024-02-26T12:07:54;6.60;99.90
82901;DHT22;72673;50.822;3.280;2024-02-26T12:10:27;6.60;99.90
82901;DHT22;72673;50.822;3.280;2024-02-26T12:15:39;6.70;99.90
82901;DHT22;72673;50.822;3.280;2024-02-26T12:18:07;6.70;99.90
82901;DHT22;72673;50.822;3.280;2024-02-26T12:20:33;6.70;99.90
82901;DHT22;72673;50.822;3.280;2024-02-26T12:22:59;6.70;99.90
82901;DHT22;72673;50.822;3.280;2024-02-26T12:25:26;6.70;99.90
82901;DHT22;72673;50.822;3.280;2024-02-26T12:27:53;6.70;99.90
82901;DHT22;72673;50.822;3.280;2024-02-26T12:30:19;6.60;99.90
82901;DHT22;72673;50.822;3.280;2024-02-26T12:32:46;6.70;99.90
82901;DHT22;72673;50.822;3.280;2024-02-26T12:35:12;6.70;99.90
82901;DHT22;72673;50.822;3.280;2024-02-26T12:37:38;6.70;99.90
82901;DHT22;72673;50.822;3.280;2024-02-26T12:40:08;6.70;99.90
82901;DHT22;72673;50.822;3.280;2024-02-26T12:42:35;6.70;99.90
82901;DHT22;72673;50.822;3.280;2024-02-26T12:45:06;6.60;99.90
82901;DHT22;72673;50.822;3.280;2024-02-26T12:47:37;6.60;99.90
82901;DHT22;72673;50.822;3.280;2024-02-26T12:50:04;6.60;99.90
82901;DHT22;72673;50.822;3.280;2024-02-26T12:52:34;6.60;99.90
82901;DHT22;72673;50.822;3.280;2024-02-26T12:55:01;6.50;99.90
82901;DHT22;72673;50.822;3.280;2024-02-26T12:57:32;6.60;99.90
82901;DHT22;72673;50.822;3.280;2024-02-26T12:59:58;6.60;99.90
82901;DHT22;72673;50.822;3.280;2024-02-26T13:02:24;6.60;99.90
82901;DHT22;72673;50.822;3.280;2024-02-26T13:04:50;6.70;99.90
82901;DHT22;72673;50.822;3.280;2024-02-26T13:07:16;6.70;99.90
82901;DHT22;72673;50.822;3.280;2024-02-26T13:09:42;6.70;99.90
82901;DHT22;72673;50.822;3.280;2024-02-26T13:12:08;6.60;99.90
82901;DHT22;72673;50.822;3.280;2024-02-26T13:14:34;6.60;99.90
82901;DHT22;72673;50.822;3.280;2024-02-26T13:17:00;6.50;99.90
82901;DHT22;72673;50.822;3.280;2024-02-26T13:19:27;6.60;99.90
82901;DHT22;72673;50.822;3.280;2024-02-26T13:21:53;6.60;99.90
82901;DHT22;72673;50.822;3.280;2024-02-26T13:24:22;6.70;99.90
82901;DHT22;72673;50.822;3.280;2024-02-26T13:26:55;6.70;99.90
82901;DHT22;72673;50.822;3.280;2024-02-26T13:29:20;6.70;99.90
82901;DHT22;72673;50.822;3.280;2024-02-26T13:31:46;6.70;99.90
82901;DHT22;72673;50.822;3.280;2024-02-26T13:34:26;6.70;99.90
82901;DHT22;72673;50.822;3.280;2024-02-26T13:36:52;6.70;99.90
82901;DHT22;72673;50.822;3.280;2024-02-26T13:39:25;6.70;99.90
82901;DHT22;72673;50.822;3.280;2024-02-26T13:41:51;6.70;99.90
82901;DHT22;72673;50.822;3.280;2024-02-26T13:44:18;6.80;99.90
82901;DHT22;72673;50.822;3.280;2024-02-26T13:46:44;6.70;99.90
82901;DHT22;72673;50.822;3.280;2024-02-26T13:49:10;6.80;99.90
82901;DHT22;72673;50.822;3.280;2024-02-26T13:51:37;6.90;99.90
82901;DHT22;72673;50.822;3.280;2024-02-26T13:54:03;6.90;99.90
82901;DHT22;72673;50.822;3.280;2024-02-26T13:56:29;6.90;99.90
82901;DHT22;72673;50.822;3.280;2024-02-26T13:58:55;6.90;99.90
82901;DHT22;72673;50.822;3.280;2024-02-26T14:01:20;6.90;99.90
82901;DHT22;72673;50.822;3.280;2024-02-26T14:03:46;6.90;99.90
82901;DHT22;72673;50.822;3.280;2024-02-26T14:06:12;6.90;99.90
82901;DHT22;72673;50.822;3.280;2024-02-26T14:08:37;6.90;99.90
82901;DHT22;72673;50.822;3.280;2024-02-26T14:11:03;7.00;99.90
82901;DHT22;72673;50.822;3.280;2024-02-26T14:13:29;6.90;99.90
82901;DHT22;72673;50.822;3.280;2024-02-26T14:15:54;6.90;99.90
82901;DHT22;72673;50.822;3.280;2024-02-26T14:18:21;6.90;99.90
82901;DHT22;72673;50.822;3.280;2024-02-26T14:20:47;6.90;99.90
82901;DHT22;72673;50.822;3.280;2024-02-26T14:23:12;6.90;99.90
82901;DHT22;72673;50.822;3.280;2024-02-26T14:25:38;7.00;99.90
82901;DHT22;72673;50.822;3.280;2024-02-26T14:28:04;7.10;99.90
82901;DHT22;72673;50.822;3.280;2024-02-26T14:30:30;7.00;99.90
82901;DHT22;72673;50.822;3.280;2024-02-26T14:32:56;6.90;99.90
82901;DHT22;72673;50.822;3.280;2024-02-26T14:35:21;7.00;99.90
82901;DHT22;72673;50.822;3.280;2024-02-26T14:37:47;7.00;99.90
82901;DHT22;72673;50.822;3.280;2024-02-26T14:40:14;7.00;99.90
82901;DHT22;72673;50.822;3.280;2024-02-26T14:42:41;7.00;99.90
82901;DHT22;72673;50.822;3.280;2024-02-26T14:45:07;7.00;99.90
82901;DHT22;72673;50.822;3.280;2024-02-26T14:47:35;6.90;99.90
82901;DHT22;72673;50.822;3.280;2024-02-26T14:50:01;6.90;99.90
82901;DHT22;72673;50.822;3.280;2024-02-26T14:52:27;6.90;99.90
82901;DHT22;72673;50.822;3.280;2024-02-26T14:54:52;6.90;99.90
82901;DHT22;72673;50.822;3.280;2024-02-26T14:57:18;6.90;99.90
82901;DHT22;72673;50.822;3.280;2024-02-26T14:59:44;6.90;99.90
82901;DHT22;72673;50.822;3.280;2024-02-26T15:02:10;6.90;99.90
82901;DHT22;72673;50.822;3.280;2024-02-26T15:04:36;6.90;99.90
82901;DHT22;72673;50.822;3.280;2024-02-26T15:07:03;6.90;99.90
82901;DHT22;72673;50.822;3.280;2024-02-26T15:09:29;6.90;99.90
82901;DHT22;72673;50.822;3.280;2024-02-26T15:11:55;6.80;99.90
82901;DHT22;72673;50.822;3.280;2024-02-26T15:14:23;6.80;99.90
82901;DHT22;72673;50.822;3.280;2024-02-26T15:16:48;6.80;99.90
82901;DHT22;72673;50.822;3.280;2024-02-26T15:19:14;6.90;99.90
82901;DHT22;72673;50.822;3.280;2024-02-26T15:21:47;6.80;99.90
82901;DHT22;72673;50.822;3.280;2024-02-26T15:24:13;6.80;99.90
82901;DHT22;72673;50.822;3.280;2024-02-26T15:26:41;6.80;99.90
82901;DHT22;72673;50.822;3.280;2024-02-26T15:29:07;6.80;99.90
82901;DHT22;72673;50.822;3.280;2024-02-26T15:31:37;6.90;99.90
82901;DHT22;72673;50.822;3.280;2024-02-26T15:34:04;6.80;99.90
82901;DHT22;72673;50.822;3.280;2024-02-26T15:36:30;6.90;99.90
82901;DHT22;72673;50.822;3.280;2024-02-26T15:38:56;6.90;99.90
82901;DHT22;72673;50.822;3.280;2024-02-26T15:41:22;6.90;99.90
82901;DHT22;72673;50.822;3.280;2024-02-26T15:43:48;6.90;99.90
82901;DHT22;72673;50.822;3.280;2024-02-26T15:46:13;6.90;99.90
82901;DHT22;72673;50.822;3.280;2024-02-26T15:48:39;6.90;99.90
82901;DHT22;72673;50.822;3.280;2024-02-26T15:51:05;6.90;99.90
82901;DHT22;72673;50.822;3.280;2024-02-26T15:53:30;6.80;99.90
82901;DHT22;72673;50.822;3.280;2024-02-26T15:55:56;6.80;99.90